sensor_id;sensor_type;location;lat;lon;timestamp;temperature;humidity
65995;HTU21D;52764;51.036;5.852;2023-02-04T00:01:56;10.25;80.81
65995;HTU21D;52764;51.036;5.852;2023-02-04T00:04:21;10.19;81.05
65995;HTU21D;52764;51.036;5.852;2023-02-04T00:06:47;10.14;81.09
65995;HTU21D;52764;51.036;5.852;2023-02-04T00:09:13;9.46;80.85
65995;HTU21D;52764;51.036;5.852;2023-02-04T00:11:41;10.07;80.98
65995;HTU21D;52764;51.036;5.852;2023-02-04T00:14:06;10.06;80.82
65995;HTU21D;52764;51.036;5.852;2023-02-04T00:16:32;10.03;80.71
65995;HTU21D;52764;51.036;5.852;2023-02-04T00:18:58;10.00;80.53
65995;HTU21D;52764;51.036;5.852;2023-02-04T00:21:24;9.95;81.38
65995;HTU21D;52764;51.036;5.852;2023-02-04T00:23:49;9.93;80.70
65995;HTU21D;52764;51.036;5.852;2023-02-04T00:26:16;9.92;80.62
65995;HTU21D;52764;51.036;5.852;2023-02-04T00:28:42;9.92;80.69
65995;HTU21D;52764;51.036;5.852;2023-02-04T00:31:09;9.91;80.17
65995;HTU21D;52764;51.036;5.852;2023-02-04T00:33:35;9.89;80.52
65995;HTU21D;52764;51.036;5.852;2023-02-04T00:36:01;9.88;80.35
65995;HTU21D;52764;51.036;5.852;2023-02-04T00:38:27;9.91;80.24
65995;HTU21D;52764;51.036;5.852;2023-02-04T00:40:52;9.92;80.08
65995;HTU21D;52764;51.036;5.852;2023-02-04T00:43:18;9.95;80.30
65995;HTU21D;52764;51.036;5.852;2023-02-04T00:45:44;10.01;80.27
65995;HTU21D;52764;51.036;5.852;2023-02-04T00:48:09;10.04;79.88
65995;HTU21D;52764;51.036;5.852;2023-02-04T00:50:35;10.06;79.18
65995;HTU21D;52764;51.036;5.852;2023-02-04T00:53:05;10.07;79.53
65995;HTU21D;52764;51.036;5.852;2023-02-04T00:55:31;10.12;79.21
65995;HTU21D;52764;51.036;5.852;2023-02-04T00:57:58;10.13;79.04
65995;HTU21D;52764;51.036;5.852;2023-02-04T01:00:23;10.21;78.97
65995;HTU21D;52764;51.036;5.852;2023-02-04T01:02:49;10.23;77.60
65995;HTU21D;52764;51.036;5.852;2023-02-04T01:05:15;10.29;78.56
65995;HTU21D;52764;51.036;5.852;2023-02-04T01:07:40;10.33;78.30
65995;HTU21D;52764;51.036;5.852;2023-02-04T01:10:06;10.35;78.22
65995;HTU21D;52764;51.036;5.852;2023-02-04T01:12:32;1.69;78.14
65995;HTU21D;52764;51.036;5.852;2023-02-04T01:14:58;10.39;78.11
65995;HTU21D;52764;51.036;5.852;2023-02-04T01:17:24;10.40;77.80
65995;HTU21D;52764;51.036;5.852;2023-02-04T01:19:52;10.40;77.60
65995;HTU21D;52764;51.036;5.852;2023-02-04T01:22:19;10.42;77.55
65995;HTU21D;52764;51.036;5.852;2023-02-04T01:24:45;10.44;77.37
65995;HTU21D;52764;51.036;5.852;2023-02-04T01:27:34;10.48;77.20
65995;HTU21D;52764;51.036;5.852;2023-02-04T01:30:03;10.51;77.03
65995;HTU21D;52764;51.036;5.852;2023-02-04T01:32:29;10.55;76.87
65995;HTU21D;52764;51.036;5.852;2023-02-04T01:34:55;10.56;76.73
65995;HTU21D;52764;51.036;5.852;2023-02-04T01:37:20;10.55;76.66
65995;HTU21D;52764;51.036;5.852;2023-02-04T01:39:46;10.56;76.48
65995;HTU21D;52764;51.036;5.852;2023-02-04T01:42:12;10.55;76.33
65995;HTU21D;52764;51.036;5.852;2023-02-04T01:44:38;10.56;76.67
65995;HTU21D;52764;51.036;5.852;2023-02-04T01:47:05;10.56;76.60
65995;HTU21D;52764;51.036;5.852;2023-02-04T01:49:31;10.55;76.61
65995;HTU21D;52764;51.036;5.852;2023-02-04T01:51:57;10.57;76.47
65995;HTU21D;52764;51.036;5.852;2023-02-04T01:54:25;10.56;76.16
65995;HTU21D;52764;51.036;5.852;2023-02-04T01:56:51;10.44;76.67
65995;HTU21D;52764;51.036;5.852;2023-02-04T01:59:20;10.44;76.86
65995;HTU21D;52764;51.036;5.852;2023-02-04T02:01:51;10.48;76.91
65995;HTU21D;52764;51.036;5.852;2023-02-04T02:04:23;10.46;77.08
65995;HTU21D;52764;51.036;5.852;2023-02-04T02:06:55;10.51;76.97
65995;HTU21D;52764;51.036;5.852;2023-02-04T02:09:25;10.52;76.73
65995;HTU21D;52764;51.036;5.852;2023-02-04T02:11:51;10.50;76.70
65995;HTU21D;52764;51.036;5.852;2023-02-04T02:14:17;10.58;76.40
65995;HTU21D;52764;51.036;5.852;2023-02-04T02:16:43;10.64;76.21
65995;HTU21D;52764;51.036;5.852;2023-02-04T02:19:16;10.68;76.08
65995;HTU21D;52764;51.036;5.852;2023-02-04T02:21:55;10.71;76.00
65995;HTU21D;52764;51.036;5.852;2023-02-04T02:24:33;10.67;76.18
65995;HTU21D;52764;51.036;5.852;2023-02-04T02:27:05;10.66;76.23
65995;HTU21D;52764;51.036;5.852;2023-02-04T02:29:34;10.68;76.05
65995;HTU21D;52764;51.036;5.852;2023-02-04T02:32:00;10.70;76.02
65995;HTU21D;52764;51.036;5.852;2023-02-04T02:34:28;10.68;75.89
65995;HTU21D;52764;51.036;5.852;2023-02-04T02:36:56;10.65;75.83
65995;HTU21D;52764;51.036;5.852;2023-02-04T02:39:23;10.62;75.74
65995;HTU21D;52764;51.036;5.852;2023-02-04T02:41:49;10.58;79.88
65995;HTU21D;52764;51.036;5.852;2023-02-04T02:44:17;10.56;75.88
65995;HTU21D;52764;51.036;5.852;2023-02-04T02:46:43;10.55;75.77
65995;HTU21D;52764;51.036;5.852;2023-02-04T02:49:15;10.54;75.70
65995;HTU21D;52764;51.036;5.852;2023-02-04T02:51:43;10.50;75.74
65995;HTU21D;52764;51.036;5.852;2023-02-04T02:56:45;10.36;76.00
65995;HTU21D;52764;51.036;5.852;2023-02-04T02:59:14;10.29;76.11
65995;HTU21D;52764;51.036;5.852;2023-02-04T03:01:41;10.22;76.27
65995;HTU21D;52764;51.036;5.852;2023-02-04T03:04:09;10.13;76.31
65995;HTU21D;52764;51.036;5.852;2023-02-04T03:06:36;10.07;76.68
65995;HTU21D;52764;51.036;5.852;2023-02-04T03:09:01;10.01;77.02
65995;HTU21D;52764;51.036;5.852;2023-02-04T03:11:27;9.97;77.31
65995;HTU21D;52764;51.036;5.852;2023-02-04T03:13:59;9.95;77.34
65995;HTU21D;52764;51.036;5.852;2023-02-04T03:16:31;9.95;77.37
65995;HTU21D;52764;51.036;5.852;2023-02-04T03:18:59;9.95;77.29
65995;HTU21D;52764;51.036;5.852;2023-02-04T03:21:26;9.95;77.05
65995;HTU21D;52764;51.036;5.852;2023-02-04T03:23:53;9.95;76.86
65995;HTU21D;52764;51.036;5.852;2023-02-04T03:26:23;9.95;76.86
65995;HTU21D;52764;51.036;5.852;2023-02-04T03:28:49;9.96;76.79
65995;HTU21D;52764;51.036;5.852;2023-02-04T03:31:15;9.97;76.68
65995;HTU21D;52764;51.036;5.852;2023-02-04T03:33:41;10.00;76.57
65995;HTU21D;52764;51.036;5.852;2023-02-04T03:36:07;10.01;76.56
65995;HTU21D;52764;51.036;5.852;2023-02-04T03:38:33;10.03;76.44
65995;HTU21D;52764;51.036;5.852;2023-02-04T03:40:59;10.05;76.31
65995;HTU21D;52764;51.036;5.852;2023-02-04T03:43:25;10.07;76.15
65995;HTU21D;52764;51.036;5.852;2023-02-04T03:45:51;10.10;75.97
65995;HTU21D;52764;51.036;5.852;2023-02-04T03:48:17;10.12;76.04
65995;HTU21D;52764;51.036;5.852;2023-02-04T03:50:42;10.14;76.08
65995;HTU21D;52764;51.036;5.852;2023-02-04T03:53:08;10.21;76.13
65995;HTU21D;52764;51.036;5.852;2023-02-04T03:55:34;10.22;76.07
65995;HTU21D;52764;51.036;5.852;2023-02-04T03:58:01;10.25;75.99
65995;HTU21D;52764;51.036;5.852;2023-02-04T04:00:27;10.27;75.86
65995;HTU21D;52764;51.036;5.852;2023-02-04T04:02:53;10.27;75.76
65995;HTU21D;52764;51.036;5.852;2023-02-04T04:05:19;10.27;75.76
65995;HTU21D;52764;51.036;5.852;2023-02-04T04:07:44;-20.44;75.65
65995;HTU21D;52764;51.036;5.852;2023-02-04T04:10:10;10.26;75.67
65995;HTU21D;52764;51.036;5.852;2023-02-04T04:12:36;10.28;75.61
65995;HTU21D;52764;51.036;5.852;2023-02-04T04:15:03;10.29;75.73
65995;HTU21D;52764;51.036;5.852;2023-02-04T04:17:29;9.82;63.69
65995;HTU21D;52764;51.036;5.852;2023-02-04T04:19:55;10.35;75.73
65995;HTU21D;52764;51.036;5.852;2023-02-04T04:22:20;10.37;75.86
65995;HTU21D;52764;51.036;5.852;2023-02-04T04:24:47;10.38;76.03
65995;HTU21D;52764;51.036;5.852;2023-02-04T04:27:12;10.42;76.06
65995;HTU21D;52764;51.036;5.852;2023-02-04T04:29:38;10.42;76.05
65995;HTU21D;52764;51.036;5.852;2023-02-04T04:32:04;10.48;76.01
65995;HTU21D;52764;51.036;5.852;2023-02-04T04:34:30;10.53;75.73
65995;HTU21D;52764;51.036;5.852;2023-02-04T04:36:55;10.56;75.68
65995;HTU21D;52764;51.036;5.852;2023-02-04T04:39:21;10.60;75.50
65995;HTU21D;52764;51.036;5.852;2023-02-04T04:41:47;10.63;75.54
65995;HTU21D;52764;51.036;5.852;2023-02-04T04:44:13;10.65;75.58
65995;HTU21D;52764;51.036;5.852;2023-02-04T04:46:38;10.65;75.46
65995;HTU21D;52764;51.036;5.852;2023-02-04T04:49:05;10.62;75.61
65995;HTU21D;52764;51.036;5.852;2023-02-04T04:51:31;10.60;75.71
65995;HTU21D;52764;51.036;5.852;2023-02-04T04:53:58;10.58;79.50
65995;HTU21D;52764;51.036;5.852;2023-02-04T04:56:24;10.57;75.92
65995;HTU21D;52764;51.036;5.852;2023-02-04T04:58:50;13.08;75.89
65995;HTU21D;52764;51.036;5.852;2023-02-04T05:01:16;10.56;75.95
65995;HTU21D;52764;51.036;5.852;2023-02-04T05:03:41;10.52;75.86
65995;HTU21D;52764;51.036;5.852;2023-02-04T05:06:07;10.22;76.03
65995;HTU21D;52764;51.036;5.852;2023-02-04T05:08:34;10.46;76.05
65995;HTU21D;52764;51.036;5.852;2023-02-04T05:11:01;10.45;76.17
65995;HTU21D;52764;51.036;5.852;2023-02-04T05:13:28;10.45;76.24
65995;HTU21D;52764;51.036;5.852;2023-02-04T05:15:53;10.42;76.28
65995;HTU21D;52764;51.036;5.852;2023-02-04T05:18:19;10.41;76.41
65995;HTU21D;52764;51.036;5.852;2023-02-04T05:20:45;10.41;76.26
65995;HTU21D;52764;51.036;5.852;2023-02-04T05:23:10;10.39;76.33
65995;HTU21D;52764;51.036;5.852;2023-02-04T05:25:36;10.33;76.41
65995;HTU21D;52764;51.036;5.852;2023-02-04T05:28:02;10.29;76.54
65995;HTU21D;52764;51.036;5.852;2023-02-04T05:30:28;10.26;76.59
65995;HTU21D;52764;51.036;5.852;2023-02-04T05:32:53;10.27;76.75
65995;HTU21D;52764;51.036;5.852;2023-02-04T05:35:19;10.29;76.79
65995;HTU21D;52764;51.036;5.852;2023-02-04T05:37:45;10.31;76.80
65995;HTU21D;52764;51.036;5.852;2023-02-04T05:40:11;10.33;76.82
65995;HTU21D;52764;51.036;5.852;2023-02-04T05:42:38;10.34;76.78
65995;HTU21D;52764;51.036;5.852;2023-02-04T05:45:04;10.29;76.95
65995;HTU21D;52764;51.036;5.852;2023-02-04T05:47:29;10.28;77.15
65995;HTU21D;52764;51.036;5.852;2023-02-04T05:49:55;10.29;77.24
65995;HTU21D;52764;51.036;5.852;2023-02-04T05:52:21;10.29;77.21
65995;HTU21D;52764;51.036;5.852;2023-02-04T05:54:47;10.31;77.18
65995;HTU21D;52764;51.036;5.852;2023-02-04T05:57:12;10.31;77.02
65995;HTU21D;52764;51.036;5.852;2023-02-04T05:59:38;10.31;76.95
65995;HTU21D;52764;51.036;5.852;2023-02-04T06:02:04;10.31;76.83
65995;HTU21D;52764;51.036;5.852;2023-02-04T06:04:29;10.30;76.95
65995;HTU21D;52764;51.036;5.852;2023-02-04T06:06:55;10.36;76.73
65995;HTU21D;52764;51.036;5.852;2023-02-04T06:09:21;10.41;76.56
65995;HTU21D;52764;51.036;5.852;2023-02-04T06:11:46;10.40;76.42
65995;HTU21D;52764;51.036;5.852;2023-02-04T06:14:12;10.33;76.58
65995;HTU21D;52764;51.036;5.852;2023-02-04T06:16:38;10.28;76.90
65995;HTU21D;52764;51.036;5.852;2023-02-04T06:19:04;10.24;77.03
65995;HTU21D;52764;51.036;5.852;2023-02-04T06:21:29;10.27;76.88
65995;HTU21D;52764;51.036;5.852;2023-02-04T06:23:55;10.27;76.69
65995;HTU21D;52764;51.036;5.852;2023-02-04T06:26:21;10.25;76.74
65995;HTU21D;52764;51.036;5.852;2023-02-04T06:28:47;10.25;76.70
65995;HTU21D;52764;51.036;5.852;2023-02-04T06:31:12;10.25;76.73
65995;HTU21D;52764;51.036;5.852;2023-02-04T06:33:38;10.23;76.61
65995;HTU21D;52764;51.036;5.852;2023-02-04T06:36:04;12.33;76.58
65995;HTU21D;52764;51.036;5.852;2023-02-04T06:38:30;10.19;76.62
65995;HTU21D;52764;51.036;5.852;2023-02-04T06:40:55;10.16;76.57
65995;HTU21D;52764;51.036;5.852;2023-02-04T06:43:21;10.15;76.65
65995;HTU21D;52764;51.036;5.852;2023-02-04T06:45:50;10.16;76.50
65995;HTU21D;52764;51.036;5.852;2023-02-04T06:48:16;10.18;76.57
65995;HTU21D;52764;51.036;5.852;2023-02-04T06:50:42;10.20;74.34
65995;HTU21D;52764;51.036;5.852;2023-02-04T06:53:08;10.23;76.47
65995;HTU21D;52764;51.036;5.852;2023-02-04T06:55:34;10.26;76.33
65995;HTU21D;52764;51.036;5.852;2023-02-04T06:58:00;12.55;76.18
65995;HTU21D;52764;51.036;5.852;2023-02-04T07:00:27;10.31;76.18
65995;HTU21D;52764;51.036;5.852;2023-02-04T07:02:55;10.31;76.06
65995;HTU21D;52764;51.036;5.852;2023-02-04T07:05:22;-20.53;76.27
65995;HTU21D;52764;51.036;5.852;2023-02-04T07:07:48;9.71;76.12
65995;HTU21D;52764;51.036;5.852;2023-02-04T07:10:15;10.30;76.07
65995;HTU21D;52764;51.036;5.852;2023-02-04T07:12:41;1.50;75.92
65995;HTU21D;52764;51.036;5.852;2023-02-04T07:15:07;10.26;75.92
65995;HTU21D;52764;51.036;5.852;2023-02-04T07:17:33;10.28;75.81
65995;HTU21D;52764;51.036;5.852;2023-02-04T07:19:59;10.26;75.85
65995;HTU21D;52764;51.036;5.852;2023-02-04T07:22:24;10.25;75.86
65995;HTU21D;52764;51.036;5.852;2023-02-04T07:24:50;10.27;75.86
65995;HTU21D;52764;51.036;5.852;2023-02-04T07:27:16;10.26;75.84
65995;HTU21D;52764;51.036;5.852;2023-02-04T07:29:42;10.28;75.93
65995;HTU21D;52764;51.036;5.852;2023-02-04T07:32:07;10.30;75.86
65995;HTU21D;52764;51.036;5.852;2023-02-04T07:34:33;10.28;76.02
65995;HTU21D;52764;51.036;5.852;2023-02-04T07:36:59;10.28;76.10
65995;HTU21D;52764;51.036;5.852;2023-02-04T07:39:25;10.25;76.31
65995;HTU21D;52764;51.036;5.852;2023-02-04T07:41:50;10.25;76.26
65995;HTU21D;52764;51.036;5.852;2023-02-04T07:44:21;10.29;76.12
65995;HTU21D;52764;51.036;5.852;2023-02-04T07:46:47;10.33;76.10
65995;HTU21D;52764;51.036;5.852;2023-02-04T07:49:13;10.34;75.92
65995;HTU21D;52764;51.036;5.852;2023-02-04T07:51:38;10.38;75.86
65995;HTU21D;52764;51.036;5.852;2023-02-04T07:54:04;10.40;75.88
65995;HTU21D;52764;51.036;5.852;2023-02-04T07:56:30;10.38;75.99
65995;HTU21D;52764;51.036;5.852;2023-02-04T07:58:55;10.51;75.61
65995;HTU21D;52764;51.036;5.852;2023-02-04T08:01:21;10.55;75.45
65995;HTU21D;52764;51.036;5.852;2023-02-04T08:03:47;10.59;75.38
65995;HTU21D;52764;51.036;5.852;2023-02-04T08:06:13;10.60;75.35
65995;HTU21D;52764;51.036;5.852;2023-02-04T08:08:38;10.66;75.25
65995;HTU21D;52764;51.036;5.852;2023-02-04T08:11:04;10.68;75.18
65995;HTU21D;52764;51.036;5.852;2023-02-04T08:13:30;10.72;75.14
65995;HTU21D;52764;51.036;5.852;2023-02-04T08:15:55;10.75;74.93
65995;HTU21D;52764;51.036;5.852;2023-02-04T08:18:21;10.73;74.88
65995;HTU21D;52764;51.036;5.852;2023-02-04T08:20:49;10.72;75.08
65995;HTU21D;52764;51.036;5.852;2023-02-04T08:23:15;10.73;75.12
65995;HTU21D;52764;51.036;5.852;2023-02-04T08:25:41;10.77;75.02
65995;HTU21D;52764;51.036;5.852;2023-02-04T08:28:06;10.81;75.00
65995;HTU21D;52764;51.036;5.852;2023-02-04T08:30:32;10.86;74.84
65995;HTU21D;52764;51.036;5.852;2023-02-04T08:32:58;10.88;74.69
65995;HTU21D;52764;51.036;5.852;2023-02-04T08:35:24;10.95;74.57
65995;HTU21D;52764;51.036;5.852;2023-02-04T08:37:49;10.96;74.38
65995;HTU21D;52764;51.036;5.852;2023-02-04T08:40:15;10.99;74.25
65995;HTU21D;52764;51.036;5.852;2023-02-04T08:42:41;11.01;74.10
65995;HTU21D;52764;51.036;5.852;2023-02-04T08:45:07;11.03;74.17
65995;HTU21D;52764;51.036;5.852;2023-02-04T08:47:33;11.08;74.15
65995;HTU21D;52764;51.036;5.852;2023-02-04T08:49:58;11.12;73.98
65995;HTU21D;52764;51.036;5.852;2023-02-04T08:52:24;11.15;73.86
65995;HTU21D;52764;51.036;5.852;2023-02-04T08:54:49;11.16;73.83
65995;HTU21D;52764;51.036;5.852;2023-02-04T08:57:15;11.19;73.73
65995;HTU21D;52764;51.036;5.852;2023-02-04T08:59:41;11.20;73.67
65995;HTU21D;52764;51.036;5.852;2023-02-04T09:02:08;11.20;73.63
65995;HTU21D;52764;51.036;5.852;2023-02-04T09:04:34;11.22;73.56
65995;HTU21D;52764;51.036;5.852;2023-02-04T09:07:00;11.23;73.30
65995;HTU21D;52764;51.036;5.852;2023-02-04T09:09:25;11.25;73.35
65995;HTU21D;52764;51.036;5.852;2023-02-04T09:11:51;11.30;73.34
65995;HTU21D;52764;51.036;5.852;2023-02-04T09:14:16;11.38;73.25
65995;HTU21D;52764;51.036;5.852;2023-02-04T09:16:42;11.43;73.20
65995;HTU21D;52764;51.036;5.852;2023-02-04T09:19:08;11.45;73.14
65995;HTU21D;52764;51.036;5.852;2023-02-04T09:21:37;11.48;72.97
65995;HTU21D;52764;51.036;5.852;2023-02-04T09:24:02;11.51;72.95
65995;HTU21D;52764;51.036;5.852;2023-02-04T09:26:28;11.59;72.82
65995;HTU21D;52764;51.036;5.852;2023-02-04T09:28:54;11.71;72.56
65995;HTU21D;52764;51.036;5.852;2023-02-04T09:31:20;11.77;71.87
65995;HTU21D;52764;51.036;5.852;2023-02-04T09:33:46;11.79;71.57
65995;HTU21D;52764;51.036;5.852;2023-02-04T09:36:11;11.83;71.50
65995;HTU21D;52764;51.036;5.852;2023-02-04T09:38:38;11.87;71.40
65995;HTU21D;52764;51.036;5.852;2023-02-04T09:41:07;11.87;70.07
65995;HTU21D;52764;51.036;5.852;2023-02-04T09:43:44;11.94;71.03
65995;HTU21D;52764;51.036;5.852;2023-02-04T09:46:24;11.93;71.21
65995;HTU21D;52764;51.036;5.852;2023-02-04T09:48:56;11.97;71.15
65995;HTU21D;52764;51.036;5.852;2023-02-04T09:51:26;12.02;71.01
65995;HTU21D;52764;51.036;5.852;2023-02-04T09:54:00;12.06;70.98
65995;HTU21D;52764;51.036;5.852;2023-02-04T09:56:27;12.08;71.24
65995;HTU21D;52764;51.036;5.852;2023-02-04T09:58:53;12.06;70.99
65995;HTU21D;52764;51.036;5.852;2023-02-04T10:01:19;12.08;70.98
65995;HTU21D;52764;51.036;5.852;2023-02-04T10:03:47;12.11;70.77
65995;HTU21D;52764;51.036;5.852;2023-02-04T10:06:20;12.10;70.86
65995;HTU21D;52764;51.036;5.852;2023-02-04T10:08:48;12.12;71.10
65995;HTU21D;52764;51.036;5.852;2023-02-04T10:11:17;12.12;71.35
65995;HTU21D;52764;51.036;5.852;2023-02-04T10:13:47;12.15;71.22
65995;HTU21D;52764;51.036;5.852;2023-02-04T10:16:27;12.17;71.03
65995;HTU21D;52764;51.036;5.852;2023-02-04T10:18:58;12.19;71.03
65995;HTU21D;52764;51.036;5.852;2023-02-04T10:21:30;12.21;70.91
65995;HTU21D;52764;51.036;5.852;2023-02-04T10:23:58;12.18;70.67
65995;HTU21D;52764;51.036;5.852;2023-02-04T10:26:28;12.03;70.68
65995;HTU21D;52764;51.036;5.852;2023-02-04T10:29:06;12.12;70.97
65995;HTU21D;52764;51.036;5.852;2023-02-04T10:31:38;12.11;70.86
65995;HTU21D;52764;51.036;5.852;2023-02-04T10:34:06;12.14;70.87
65995;HTU21D;52764;51.036;5.852;2023-02-04T10:36:32;12.13;70.93
65995;HTU21D;52764;51.036;5.852;2023-02-04T10:39:21;12.15;71.03
65995;HTU21D;52764;51.036;5.852;2023-02-04T10:42:05;-16.67;70.90
65995;HTU21D;52764;51.036;5.852;2023-02-04T10:44:33;12.20;70.92
65995;HTU21D;52764;51.036;5.852;2023-02-04T10:47:14;12.19;70.77
65995;HTU21D;52764;51.036;5.852;2023-02-04T10:49:49;12.18;70.84
65995;HTU21D;52764;51.036;5.852;2023-02-04T10:52:19;12.16;70.38
65995;HTU21D;52764;51.036;5.852;2023-02-04T10:54:46;12.22;70.48
65995;HTU21D;52764;51.036;5.852;2023-02-04T10:57:29;12.41;70.90
65995;HTU21D;52764;51.036;5.852;2023-02-04T10:59:58;12.61;70.29
65995;HTU21D;52764;51.036;5.852;2023-02-04T11:02:31;12.71;67.95
65995;HTU21D;52764;51.036;5.852;2023-02-04T11:04:57;12.78;69.31
65995;HTU21D;52764;51.036;5.852;2023-02-04T11:07:23;12.18;69.13
65995;HTU21D;52764;51.036;5.852;2023-02-04T11:09:49;12.97;68.28
65995;HTU21D;52764;51.036;5.852;2023-02-04T11:12:39;12.97;67.65
65995;HTU21D;52764;51.036;5.852;2023-02-04T11:15:06;12.92;68.01
65995;HTU21D;52764;51.036;5.852;2023-02-04T11:18:02;12.86;68.11
65995;HTU21D;52764;51.036;5.852;2023-02-04T11:20:32;12.77;68.49
65995;HTU21D;52764;51.036;5.852;2023-02-04T11:33:48;12.99;68.12
65995;HTU21D;52764;51.036;5.852;2023-02-04T11:36:15;12.97;68.20
65995;HTU21D;52764;51.036;5.852;2023-02-04T11:38:47;12.97;68.22
65995;HTU21D;52764;51.036;5.852;2023-02-04T11:41:25;12.94;68.37
65995;HTU21D;52764;51.036;5.852;2023-02-04T11:43:53;12.92;68.65
65995;HTU21D;52764;51.036;5.852;2023-02-04T11:46:20;12.95;68.07
65995;HTU21D;52764;51.036;5.852;2023-02-04T11:48:53;12.94;68.01
65995;HTU21D;52764;51.036;5.852;2023-02-04T11:51:27;12.90;68.58
65995;HTU21D;52764;51.036;5.852;2023-02-04T11:53:54;12.89;68.82
65995;HTU21D;52764;51.036;5.852;2023-02-04T11:56:21;12.92;68.78
65995;HTU21D;52764;51.036;5.852;2023-02-04T11:58:48;12.94;68.71
65995;HTU21D;52764;51.036;5.852;2023-02-04T12:01:31;12.99;68.58
65995;HTU21D;52764;51.036;5.852;2023-02-04T12:04:00;13.01;68.52
65995;HTU21D;52764;51.036;5.852;2023-02-04T12:06:32;12.97;69.10
65995;HTU21D;52764;51.036;5.852;2023-02-04T12:09:19;12.97;68.71
65995;HTU21D;52764;51.036;5.852;2023-02-04T12:11:55;12.91;68.63
65995;HTU21D;52764;51.036;5.852;2023-02-04T12:14:28;13.04;68.48
65995;HTU21D;52764;51.036;5.852;2023-02-04T12:16:55;12.97;68.75
65995;HTU21D;52764;51.036;5.852;2023-02-04T12:19:21;13.02;68.80
65995;HTU21D;52764;51.036;5.852;2023-02-04T12:21:47;13.04;68.53
65995;HTU21D;52764;51.036;5.852;2023-02-04T12:24:12;13.01;68.23
65995;HTU21D;52764;51.036;5.852;2023-02-04T12:26:38;13.03;67.93
65995;HTU21D;52764;51.036;5.852;2023-02-04T12:29:04;13.11;67.57
65995;HTU21D;52764;51.036;5.852;2023-02-04T12:31:30;12.93;67.46
65995;HTU21D;52764;51.036;5.852;2023-02-04T12:33:56;13.23;67.27
65995;HTU21D;52764;51.036;5.852;2023-02-04T12:36:22;13.55;67.01
65995;HTU21D;52764;51.036;5.852;2023-02-04T12:38:49;13.66;66.54
65995;HTU21D;52764;51.036;5.852;2023-02-04T12:41:14;13.74;66.27
65995;HTU21D;52764;51.036;5.852;2023-02-04T12:43:40;13.78;65.89
65995;HTU21D;52764;51.036;5.852;2023-02-04T12:46:06;13.85;65.74
65995;HTU21D;52764;51.036;5.852;2023-02-04T12:48:31;13.92;65.45
65995;HTU21D;52764;51.036;5.852;2023-02-04T12:50:57;13.95;64.67
65995;HTU21D;52764;51.036;5.852;2023-02-04T12:53:23;13.96;65.53
65995;HTU21D;52764;51.036;5.852;2023-02-04T12:55:48;14.04;65.15
65995;HTU21D;52764;51.036;5.852;2023-02-04T12:58:14;9.20;65.04
65995;HTU21D;52764;51.036;5.852;2023-02-04T13:00:41;14.09;64.43
65995;HTU21D;52764;51.036;5.852;2023-02-04T13:03:07;14.03;64.27
65995;HTU21D;52764;51.036;5.852;2023-02-04T13:05:32;8.96;63.50
65995;HTU21D;52764;51.036;5.852;2023-02-04T13:08:00;14.33;63.15
65995;HTU21D;52764;51.036;5.852;2023-02-04T13:10:26;13.85;69.25
65995;HTU21D;52764;51.036;5.852;2023-02-04T13:12:52;13.81;62.85
65995;HTU21D;52764;51.036;5.852;2023-02-04T13:15:18;13.80;62.69
65995;HTU21D;52764;51.036;5.852;2023-02-04T13:17:44;13.79;62.58
65995;HTU21D;52764;51.036;5.852;2023-02-04T13:20:12;13.76;62.72
65995;HTU21D;52764;51.036;5.852;2023-02-04T13:22:38;13.81;62.71
65995;HTU21D;52764;51.036;5.852;2023-02-04T13:25:04;13.93;62.57
65995;HTU21D;52764;51.036;5.852;2023-02-04T13:27:30;13.92;61.41
65995;HTU21D;52764;51.036;5.852;2023-02-04T13:29:56;13.80;61.83
65995;HTU21D;52764;51.036;5.852;2023-02-04T13:32:22;13.74;61.97
65995;HTU21D;52764;51.036;5.852;2023-02-04T13:34:48;13.71;61.74
65995;HTU21D;52764;51.036;5.852;2023-02-04T13:37:14;13.64;61.57
65995;HTU21D;52764;51.036;5.852;2023-02-04T13:39:39;13.55;61.79
65995;HTU21D;52764;51.036;5.852;2023-02-04T13:42:05;13.50;61.99
65995;HTU21D;52764;51.036;5.852;2023-02-04T13:44:31;13.56;61.99
65995;HTU21D;52764;51.036;5.852;2023-02-04T13:46:57;13.59;61.38
65995;HTU21D;52764;51.036;5.852;2023-02-04T13:49:23;13.52;61.44
65995;HTU21D;52764;51.036;5.852;2023-02-04T13:51:48;13.49;61.70
65995;HTU21D;52764;51.036;5.852;2023-02-04T13:54:14;13.40;61.74
65995;HTU21D;52764;51.036;5.852;2023-02-04T13:56:40;13.33;62.44
65995;HTU21D;52764;51.036;5.852;2023-02-04T13:59:06;13.24;63.11
65995;HTU21D;52764;51.036;5.852;2023-02-04T14:01:31;13.24;63.27
65995;HTU21D;52764;51.036;5.852;2023-02-04T14:03:57;13.22;63.15
65995;HTU21D;52764;51.036;5.852;2023-02-04T14:06:23;13.22;63.22
65995;HTU21D;52764;51.036;5.852;2023-02-04T14:08:58;13.25;63.28
65995;HTU21D;52764;51.036;5.852;2023-02-04T14:11:24;13.24;63.21
65995;HTU21D;52764;51.036;5.852;2023-02-04T14:13:50;12.93;63.06
65995;HTU21D;52764;51.036;5.852;2023-02-04T14:16:25;13.21;63.23
65995;HTU21D;52764;51.036;5.852;2023-02-04T14:18:51;13.26;63.53
65995;HTU21D;52764;51.036;5.852;2023-02-04T14:21:17;13.29;63.70
65995;HTU21D;52764;51.036;5.852;2023-02-04T14:23:43;13.23;63.94
65995;HTU21D;52764;51.036;5.852;2023-02-04T14:26:08;13.24;63.95
65995;HTU21D;52764;51.036;5.852;2023-02-04T14:28:34;13.29;63.69
65995;HTU21D;52764;51.036;5.852;2023-02-04T14:31:00;13.29;63.18
65995;HTU21D;52764;51.036;5.852;2023-02-04T14:33:26;13.34;63.23
65995;HTU21D;52764;51.036;5.852;2023-02-04T14:35:51;13.39;62.92
65995;HTU21D;52764;51.036;5.852;2023-02-04T14:38:17;-14.12;69.72
65995;HTU21D;52764;51.036;5.852;2023-02-04T14:40:43;13.50;62.64
65995;HTU21D;52764;51.036;5.852;2023-02-04T14:43:10;13.49;62.75
65995;HTU21D;52764;51.036;5.852;2023-02-04T14:45:39;13.52;63.00
65995;HTU21D;52764;51.036;5.852;2023-02-04T14:48:06;13.58;62.95
65995;HTU21D;52764;51.036;5.852;2023-02-04T14:50:32;13.67;62.65
65995;HTU21D;52764;51.036;5.852;2023-02-04T14:52:58;8.36;61.96
65995;HTU21D;52764;51.036;5.852;2023-02-04T14:55:25;13.71;61.87
65995;HTU21D;52764;51.036;5.852;2023-02-04T14:57:51;13.68;62.18
65995;HTU21D;52764;51.036;5.852;2023-02-04T15:00:18;13.65;62.24
65995;HTU21D;52764;51.036;5.852;2023-02-04T15:02:44;13.68;62.06
65995;HTU21D;52764;51.036;5.852;2023-02-04T15:05:10;13.74;61.51
65995;HTU21D;52764;51.036;5.852;2023-02-04T15:07:36;13.79;60.89
65995;HTU21D;52764;51.036;5.852;2023-02-04T15:10:03;13.83;60.88
65995;HTU21D;52764;51.036;5.852;2023-02-04T15:12:29;13.86;60.96
65995;HTU21D;52764;51.036;5.852;2023-02-04T15:14:55;13.91;60.72
65995;HTU21D;52764;51.036;5.852;2023-02-04T15:17:21;13.96;60.91
65995;HTU21D;52764;51.036;5.852;2023-02-04T15:19:46;13.99;60.99
65995;HTU21D;52764;51.036;5.852;2023-02-04T15:22:12;14.01;61.06
65995;HTU21D;52764;51.036;5.852;2023-02-04T15:24:38;14.04;61.12
65995;HTU21D;52764;51.036;5.852;2023-02-04T15:27:05;14.05;61.27
65995;HTU21D;52764;51.036;5.852;2023-02-04T15:29:31;14.05;62.14
65995;HTU21D;52764;51.036;5.852;2023-02-04T15:31:57;14.03;61.31